Time;durP1;ratioP1;P1;durP2;ratioP2;P2;SDS_P1;SDS_P2;PMS_P1;PMS_P2;Temp;Humidity;BMP_temperature;BMP_pressure;BME280_temperature;BME280_humidity;BME280_pressure;Samples;Min_cycle;Max_cycle;Signal;HPM_P1;HPM_P2
2023/12/22 00:00:47;;;;;;;11.98;2.08;;;6.30;99.90;;;;;;5091010;28;20032;-69
2023/12/22 00:03:14;;;;;;;15.38;2.85;;;6.20;99.90;;;;;;5093650;28;20114;-68
2023/12/22 00:05:40;;;;;;;23.73;2.90;;;6.10;99.90;;;;;;5091246;28;20774;-69
2023/12/22 00:08:05;;;;;;;23.50;2.70;;;6.10;99.90;;;;;;5089741;28;20063;-68
2023/12/22 00:10:31;;;;;;;14.87;1.90;;;6.10;99.90;;;;;;5091630;28;20597;-68
2023/12/22 00:12:57;;;;;;;5.63;1.90;;;6.10;99.90;;;;;;5084256;28;20339;-69
2023/12/22 00:15:22;;;;;;;19.97;2.37;;;6.10;99.90;;;;;;5087492;28;20058;-68
2023/12/22 00:17:48;;;;;;;16.60;1.83;;;6.20;99.90;;;;;;5083195;28;20072;-69
2023/12/22 00:20:14;;;;;;;24.77;2.27;;;6.20;99.90;;;;;;5088168;28;20150;-69
2023/12/22 00:22:40;;;;;;;14.98;2.42;;;6.30;99.90;;;;;;5086522;28;20036;-68
2023/12/22 00:25:07;;;;;;;13.43;2.87;;;6.30;99.90;;;;;;5085361;28;20044;-68
2023/12/22 00:27:33;;;;;;;10.15;3.10;;;6.30;99.90;;;;;;5087525;28;20115;-69
2023/12/22 00:29:59;;;;;;;16.60;2.63;;;6.30;99.90;;;;;;5084965;28;20559;-69
2023/12/22 00:32:24;;;;;;;13.00;2.33;;;6.30;99.90;;;;;;5081030;28;20759;-69
2023/12/22 00:34:53;;;;;;;15.33;3.27;;;6.30;99.90;;;;;;5064860;28;20123;-69
2023/12/22 00:37:21;;;;;;;9.73;2.35;;;6.30;99.90;;;;;;5088263;28;20040;-69
2023/12/22 00:39:46;;;;;;;11.90;2.30;;;6.40;99.90;;;;;;5087289;28;20089;-69
2023/12/22 00:42:12;;;;;;;23.93;3.03;;;6.40;99.90;;;;;;5088707;28;20040;-69
2023/12/22 00:44:40;;;;;;;30.57;3.20;;;6.50;99.90;;;;;;5086145;28;20043;-68
2023/12/22 00:47:05;;;;;;;19.60;2.67;;;6.60;99.90;;;;;;5087882;28;20059;-68
2023/12/22 00:49:31;;;;;;;12.63;2.17;;;6.60;99.90;;;;;;5077205;28;20416;-68
2023/12/22 00:51:56;;;;;;;16.63;2.77;;;6.60;99.90;;;;;;5083654;28;20043;-69
2023/12/22 00:54:22;;;;;;;14.10;2.03;;;6.60;99.90;;;;;;5080837;28;20036;-68
2023/12/22 00:56:48;;;;;;;18.87;2.47;;;6.50;99.90;;;;;;5084071;28;20036;-68
2023/12/22 00:59:13;;;;;;;11.07;2.10;;;6.50;99.90;;;;;;5085583;28;20488;-69
2023/12/22 01:01:41;;;;;;;15.43;2.97;;;6.50;99.90;;;;;;5091746;28;20032;-68
2023/12/22 01:04:10;;;;;;;26.93;3.23;;;6.50;99.90;;;;;;5086809;28;20092;-69
2023/12/22 01:06:39;;;;;;;17.05;3.67;;;6.50;99.90;;;;;;5077391;28;20039;-68
2023/12/22 01:09:05;;;;;;;13.52;2.15;;;6.50;99.90;;;;;;5082672;28;20055;-68
2023/12/22 01:11:33;;;;;;;9.68;2.08;;;6.50;99.90;;;;;;5095169;28;20039;-68
2023/12/22 01:13:59;;;;;;;15.05;2.40;;;6.50;99.90;;;;;;5090732;28;20047;-69
2023/12/22 01:16:27;;;;;;;12.87;2.43;;;6.50;99.90;;;;;;5081259;28;20496;-68
2023/12/22 01:18:53;;;;;;;13.82;2.63;;;6.40;99.90;;;;;;5075317;28;20036;-68
2023/12/22 01:21:19;;;;;;;14.33;1.50;;;6.40;99.90;;;;;;5086546;28;20044;-69
2023/12/22 01:23:45;;;;;;;11.27;1.50;;;6.30;99.90;;;;;;5086069;28;20625;-69
2023/12/22 01:26:10;;;;;;;12.87;3.07;;;6.30;99.90;;;;;;5089262;28;20040;-69
2023/12/22 01:28:36;;;;;;;14.17;1.70;;;6.30;99.90;;;;;;5084752;28;20035;-68
2023/12/22 01:31:02;;;;;;;16.53;2.50;;;6.30;99.90;;;;;;5079657;28;20083;-68
2023/12/22 01:33:29;;;;;;;20.17;1.77;;;6.30;99.90;;;;;;5083025;28;20576;-68
2023/12/22 01:35:55;;;;;;;13.05;1.63;;;6.30;99.90;;;;;;5089438;28;20169;-69
2023/12/22 01:38:20;;;;;;;15.47;2.50;;;6.30;99.90;;;;;;5090778;28;20484;-69
2023/12/22 01:40:46;;;;;;;12.23;2.17;;;6.30;99.90;;;;;;5088183;28;20093;-69
2023/12/22 01:43:13;;;;;;;15.13;4.00;;;6.30;99.90;;;;;;5080217;28;20091;-68
2023/12/22 01:45:38;;;;;;;11.73;2.67;;;6.40;99.90;;;;;;5070067;28;20051;-68
2023/12/22 01:48:04;;;;;;;12.47;2.60;;;6.40;99.90;;;;;;5087086;28;20109;-68
2023/12/22 01:50:31;;;;;;;13.80;2.08;;;6.40;99.90;;;;;;5086449;28;20090;-69
2023/12/22 01:52:57;;;;;;;19.23;3.22;;;6.30;99.90;;;;;;5070033;28;20051;-68
2023/12/22 01:55:23;;;;;;;24.30;2.00;;;6.40;99.90;;;;;;5086487;28;20415;-67
2023/12/22 01:57:49;;;;;;;11.60;2.33;;;6.40;99.90;;;;;;5087034;28;20330;-68
2023/12/22 02:00:16;;;;;;;18.33;2.42;;;6.30;99.90;;;;;;5088995;28;20427;-69
2023/12/22 02:02:44;;;;;;;18.88;2.67;;;6.30;99.90;;;;;;5090588;28;20237;-69
2023/12/22 02:05:13;;;;;;;17.40;2.83;;;6.40;99.90;;;;;;5083888;28;20221;-69
2023/12/22 02:07:43;;;;;;;18.80;2.83;;;6.40;99.90;;;;;;5083359;28;20025;-69
2023/12/22 02:10:09;;;;;;;14.68;1.98;;;6.50;99.90;;;;;;5083248;28;20055;-68
2023/12/22 02:12:36;;;;;;;16.25;2.47;;;6.50;99.90;;;;;;5086240;28;20044;-68
2023/12/22 02:15:02;;;;;;;10.95;1.42;;;6.60;99.90;;;;;;5081922;28;20047;-69
2023/12/22 02:17:58;;;;;;;7.20;1.40;;;6.60;99.90;;;;;;5085081;28;20032;-68
2023/12/22 02:20:24;;;;;;;7.90;1.10;;;6.60;99.90;;;;;;5083107;28;20447;-69
2023/12/22 02:22:53;;;;;;;5.80;1.23;;;6.60;99.90;;;;;;5092351;28;20487;-69
2023/12/22 02:25:19;;;;;;;7.97;1.17;;;6.60;99.90;;;;;;5090178;28;20086;-68
2023/12/22 02:27:55;;;;;;;12.10;1.97;;;6.60;99.90;;;;;;5087867;28;20543;-68
2023/12/22 02:30:33;;;;;;;8.77;1.60;;;6.60;99.90;;;;;;5086158;28;20438;-69
2023/12/22 02:33:07;;;;;;;5.60;1.50;;;6.60;99.90;;;;;;5082565;28;20703;-69
2023/12/22 02:35:36;;;;;;;13.88;3.20;;;6.60;99.90;;;;;;5084705;28;20119;-69
2023/12/22 02:38:06;;;;;;;16.77;1.92;;;6.70;99.90;;;;;;5090067;28;20560;-69
2023/12/22 02:40:34;;;;;;;7.53;1.20;;;6.60;99.90;;;;;;5091115;28;20096;-69
2023/12/22 02:43:00;;;;;;;7.35;1.05;;;6.60;99.90;;;;;;5102279;28;20044;-69
2023/12/22 02:45:30;;;;;;;11.98;1.75;;;6.60;99.90;;;;;;5098843;28;20091;-68
2023/12/22 02:47:58;;;;;;;7.43;1.55;;;6.70;99.90;;;;;;5072728;28;20079;-68
2023/12/22 02:50:24;;;;;;;4.82;0.93;;;6.60;99.90;;;;;;5088240;28;20391;-68
2023/12/22 02:52:49;;;;;;;5.53;1.70;;;6.60;99.90;;;;;;5089710;28;20044;-69
2023/12/22 02:55:15;;;;;;;7.23;1.30;;;6.60;99.90;;;;;;5089267;28;20044;-68
2023/12/22 02:57:41;;;;;;;10.70;1.40;;;6.60;99.90;;;;;;5091539;28;20542;-69
2023/12/22 03:00:07;;;;;;;12.40;1.47;;;6.50;99.90;;;;;;5099066;27;20048;-68
2023/12/22 03:02:32;;;;;;;5.68;1.33;;;6.40;99.90;;;;;;5084366;28;20076;-68
2023/12/22 03:04:58;;;;;;;6.53;1.20;;;6.40;99.90;;;;;;5108840;28;20102;-69
2023/12/22 03:07:24;;;;;;;7.83;1.13;;;6.30;99.90;;;;;;5085423;28;20042;-68
2023/12/22 03:09:49;;;;;;;5.50;1.33;;;6.30;99.90;;;;;;5094577;28;20040;-68
2023/12/22 03:12:15;;;;;;;12.93;2.50;;;6.20;99.90;;;;;;5104814;28;20089;-68
2023/12/22 03:14:41;;;;;;;10.53;2.40;;;6.20;99.90;;;;;;5088485;28;20292;-68
2023/12/22 03:17:10;;;;;;;4.97;1.40;;;6.20;99.90;;;;;;5094290;28;20067;-69
2023/12/22 03:19:36;;;;;;;12.98;1.60;;;6.20;99.90;;;;;;5084326;28;20042;-68
2023/12/22 03:22:02;;;;;;;15.85;2.25;;;6.30;99.90;;;;;;5092230;28;20036;-68
2023/12/22 03:24:35;;;;;;;13.60;1.92;;;6.30;99.90;;;;;;5094784;28;20069;-69
2023/12/22 03:27:00;;;;;;;16.13;2.80;;;6.30;99.90;;;;;;5074724;28;20442;-68
2023/12/22 03:29:26;;;;;;;6.80;1.43;;;6.30;99.90;;;;;;5096088;28;20044;-68
2023/12/22 03:31:54;;;;;;;15.33;2.47;;;6.30;99.90;;;;;;5082613;28;20040;-68
2023/12/22 03:34:20;;;;;;;14.02;2.88;;;6.40;99.90;;;;;;5088354;28;20032;-68
2023/12/22 03:36:48;;;;;;;14.77;1.80;;;6.40;99.90;;;;;;5095658;28;20400;-72
2023/12/22 03:39:18;;;;;;;10.85;2.15;;;6.50;99.90;;;;;;5081458;28;20039;-72
2023/12/22 03:41:43;;;;;;;17.40;3.30;;;6.50;99.90;;;;;;5091726;28;20048;-73
2023/12/22 03:44:09;;;;;;;12.67;1.97;;;6.50;99.90;;;;;;5090613;28;20084;-71
2023/12/22 03:46:35;;;;;;;16.90;2.37;;;6.50;99.90;;;;;;5081754;28;20047;-71
2023/12/22 03:49:00;;;;;;;16.63;1.93;;;6.50;99.90;;;;;;5089699;28;20233;-71
2023/12/22 03:51:26;;;;;;;18.37;2.10;;;6.60;99.90;;;;;;5083935;28;20044;-72
2023/12/22 03:53:51;;;;;;;10.03;2.17;;;6.60;99.90;;;;;;5086852;28;20040;-74
2023/12/22 03:56:18;;;;;;;20.30;2.57;;;6.60;99.90;;;;;;5091834;28;20074;-71
2023/12/22 03:58:44;;;;;;;10.55;2.17;;;6.60;99.90;;;;;;5093818;28;22219;-72
2023/12/22 04:01:14;;;;;;;6.60;2.50;;;6.70;99.90;;;;;;5077954;28;20049;-73
2023/12/22 04:03:39;;;;;;;16.33;2.25;;;6.70;99.90;;;;;;5083857;28;20051;-73
2023/12/22 04:06:08;;;;;;;10.43;2.45;;;6.80;99.90;;;;;;5079377;28;20055;-73
2023/12/22 04:08:33;;;;;;;11.30;1.90;;;6.80;99.90;;;;;;5090685;28;20036;-72
2023/12/22 04:10:59;;;;;;;19.73;2.30;;;6.80;99.90;;;;;;5087054;28;20392;-71
2023/12/22 04:13:25;;;;;;;15.00;1.97;;;6.80;99.90;;;;;;5086310;28;20052;-72
2023/12/22 04:15:50;;;;;;;10.33;1.53;;;6.90;99.90;;;;;;5073050;28;20049;-73
2023/12/22 04:18:16;;;;;;;12.47;1.60;;;6.90;99.90;;;;;;5084183;28;20039;-72
2023/12/22 04:20:44;;;;;;;14.90;1.73;;;6.90;99.90;;;;;;5086548;28;20060;-72
2023/12/22 04:23:10;;;;;;;20.88;3.53;;;7.00;99.90;;;;;;5061461;28;20036;-73
2023/12/22 04:25:35;;;;;;;21.57;2.63;;;7.00;99.90;;;;;;5081199;28;20032;-72
2023/12/22 04:28:01;;;;;;;15.10;2.20;;;7.00;99.90;;;;;;5086943;28;20117;-72
2023/12/22 04:30:27;;;;;;;12.30;2.27;;;7.00;99.90;;;;;;5079541;28;20062;-72
2023/12/22 04:32:53;;;;;;;14.07;2.53;;;7.00;99.90;;;;;;5088489;28;20040;-73
2023/12/22 04:35:18;;;;;;;19.93;2.57;;;7.10;99.90;;;;;;5076895;28;20396;-72
2023/12/22 04:37:44;;;;;;;19.37;2.80;;;7.00;99.90;;;;;;5080106;28;20472;-73
2023/12/22 04:40:10;;;;;;;14.93;2.47;;;7.00;99.90;;;;;;5084134;28;20044;-72
2023/12/22 04:42:36;;;;;;;14.40;2.05;;;7.00;99.90;;;;;;5084872;28;20046;-73
2023/12/22 04:45:02;;;;;;;14.87;2.27;;;7.00;99.90;;;;;;5085424;28;20044;-74
2023/12/22 04:47:27;;;;;;;12.25;2.33;;;7.00;99.90;;;;;;5087499;28;20425;-73
2023/12/22 04:49:53;;;;;;;11.67;1.87;;;7.00;99.90;;;;;;5085602;28;20044;-72
2023/12/22 04:52:19;;;;;;;13.43;2.23;;;6.90;99.90;;;;;;5082517;28;20048;-72
2023/12/22 04:54:44;;;;;;;12.70;2.03;;;7.00;99.90;;;;;;5081502;28;20044;-72
2023/12/22 04:57:10;;;;;;;10.03;2.13;;;7.00;99.90;;;;;;5088090;28;20044;-72
2023/12/22 04:59:35;;;;;;;14.93;2.43;;;7.00;99.90;;;;;;5088624;28;20675;-73
2023/12/22 05:02:04;;;;;;;8.73;1.97;;;7.00;99.90;;;;;;5072805;28;20050;-72
2023/12/22 05:04:29;;;;;;;13.52;2.70;;;7.00;99.90;;;;;;5079699;28;20040;-72
2023/12/22 05:06:58;;;;;;;10.03;2.30;;;7.00;99.90;;;;;;5081977;28;20454;-72
2023/12/22 05:09:25;;;;;;;11.98;1.80;;;7.00;99.90;;;;;;5081103;28;20091;-72
2023/12/22 05:11:50;;;;;;;12.20;2.67;;;7.00;99.90;;;;;;5073599;28;20459;-73
2023/12/22 05:14:16;;;;;;;12.63;2.10;;;7.00;99.90;;;;;;5080460;28;20113;-72
2023/12/22 05:16:41;;;;;;;16.67;2.37;;;7.10;99.90;;;;;;5083069;28;20073;-72
2023/12/22 05:19:07;;;;;;;12.47;1.67;;;7.10;99.90;;;;;;5082403;28;20113;-73
2023/12/22 05:21:33;;;;;;;13.80;2.70;;;7.10;99.90;;;;;;5078846;28;20036;-74
2023/12/22 05:23:58;;;;;;;6.57;1.60;;;7.10;99.90;;;;;;5080839;28;20089;-72
2023/12/22 05:26:25;;;;;;;16.37;2.17;;;7.10;99.90;;;;;;5080109;28;20086;-72
2023/12/22 05:28:50;;;;;;;12.18;2.05;;;7.10;99.90;;;;;;5072297;28;20071;-71
2023/12/22 05:31:19;;;;;;;8.13;1.57;;;7.10;99.90;;;;;;5079927;28;20496;-72
2023/12/22 05:33:45;;;;;;;10.50;1.73;;;7.10;99.90;;;;;;5075611;28;20078;-72
2023/12/22 05:36:10;;;;;;;8.63;1.23;;;7.10;99.90;;;;;;5076571;28;20044;-72
2023/12/22 05:38:39;;;;;;;22.90;3.73;;;7.10;99.90;;;;;;5079355;28;20270;-72
2023/12/22 05:41:08;;;;;;;17.08;1.83;;;7.10;99.90;;;;;;5091804;28;20039;-71
2023/12/22 05:43:34;;;;;;;9.63;1.63;;;7.10;99.90;;;;;;5082257;28;20043;-73
2023/12/22 05:46:00;;;;;;;15.10;1.73;;;7.10;99.90;;;;;;5084888;28;20036;-71
2023/12/22 05:48:27;;;;;;;10.82;2.15;;;7.10;99.90;;;;;;5081920;28;21364;-73
2023/12/22 05:50:55;;;;;;;13.88;2.22;;;7.10;99.90;;;;;;5079635;28;20052;-72
2023/12/22 05:53:21;;;;;;;9.68;1.65;;;7.10;99.90;;;;;;5083501;28;20047;-72
2023/12/22 05:55:46;;;;;;;18.17;1.90;;;7.20;99.90;;;;;;5065626;28;20177;-74
2023/12/22 05:58:12;;;;;;;9.03;1.63;;;7.20;99.90;;;;;;5078077;28;20127;-72
2023/12/22 06:00:38;;;;;;;9.13;1.80;;;7.10;99.90;;;;;;5079021;28;20035;-72
2023/12/22 06:03:03;;;;;;;13.60;2.57;;;7.20;99.90;;;;;;5080205;28;20048;-72
2023/12/22 06:05:30;;;;;;;12.50;2.15;;;7.20;99.90;;;;;;5077543;28;20718;-73
2023/12/22 06:07:55;;;;;;;6.90;1.90;;;7.20;99.90;;;;;;5080534;28;20128;-73
2023/12/22 06:10:21;;;;;;;10.17;1.83;;;7.10;99.90;;;;;;5081027;28;20094;-72
2023/12/22 06:12:47;;;;;;;9.00;1.50;;;7.10;99.90;;;;;;5083024;28;20388;-72
2023/12/22 06:15:12;;;;;;;16.40;1.87;;;7.10;99.90;;;;;;5080940;28;20042;-72
2023/12/22 06:17:38;;;;;;;10.70;1.50;;;7.10;99.90;;;;;;5078525;28;20462;-74
2023/12/22 06:20:04;;;;;;;9.37;1.53;;;7.10;99.90;;;;;;5087007;28;20042;-73
2023/12/22 06:22:32;;;;;;;15.00;1.92;;;7.20;99.90;;;;;;5082307;28;20051;-73
2023/12/22 06:25:02;;;;;;;11.10;1.85;;;7.10;99.90;;;;;;5079927;28;20056;-73
2023/12/22 06:27:28;;;;;;;19.63;3.17;;;7.10;99.90;;;;;;5082847;28;20036;-72
2023/12/22 06:29:55;;;;;;;12.40;2.37;;;7.10;99.90;;;;;;5084804;28;20515;-72
2023/12/22 06:32:21;;;;;;;9.02;1.98;;;7.10;99.90;;;;;;5078311;28;20275;-72
2023/12/22 06:34:47;;;;;;;9.00;1.67;;;7.10;99.90;;;;;;5076159;28;20384;-73
2023/12/22 06:37:17;;;;;;;12.93;1.90;;;7.20;99.90;;;;;;5082002;28;20043;-71
2023/12/22 06:39:43;;;;;;;8.50;1.55;;;7.20;99.90;;;;;;5083677;28;20063;-72
2023/12/22 06:42:11;;;;;;;18.23;2.73;;;7.20;99.90;;;;;;5085522;28;20036;-73
2023/12/22 06:44:37;;;;;;;6.82;1.20;;;7.20;99.90;;;;;;5076666;28;20040;-72
2023/12/22 06:47:03;;;;;;;18.25;3.15;;;7.20;99.90;;;;;;5080444;28;20048;-72
2023/12/22 06:49:28;;;;;;;6.13;1.57;;;7.20;99.90;;;;;;5079821;28;20051;-72
2023/12/22 06:51:56;;;;;;;9.33;2.03;;;7.20;99.90;;;;;;5078613;28;20051;-71
2023/12/22 06:54:22;;;;;;;16.02;3.17;;;7.20;99.90;;;;;;5078383;28;20028;-72
2023/12/22 06:56:48;;;;;;;9.87;1.50;;;7.20;99.90;;;;;;5077055;28;20180;-73
2023/12/22 06:59:13;;;;;;;11.63;2.40;;;7.10;99.90;;;;;;5081058;28;20512;-72
2023/12/22 07:01:42;;;;;;;13.40;1.90;;;7.10;99.90;;;;;;5076952;28;20110;-72
2023/12/22 07:04:07;;;;;;;7.78;1.40;;;7.00;99.90;;;;;;5079063;28;20047;-71
2023/12/22 07:06:34;;;;;;;14.10;2.03;;;7.10;99.90;;;;;;5084490;28;20035;-72
2023/12/22 07:09:12;;;;;;;;;;;7.00;99.90;;;;;;5061860;28;20309;-72
2023/12/22 07:11:46;;;;;;;9.43;1.73;;;7.10;99.90;;;;;;5082745;28;19924;-71
2023/12/22 07:14:12;;;;;;;14.05;2.25;;;7.00;99.90;;;;;;5086293;28;20272;-73
2023/12/22 07:16:38;;;;;;;14.53;2.97;;;7.10;99.90;;;;;;5077000;28;20131;-74
2023/12/22 07:19:05;;;;;;;9.77;1.55;;;7.00;99.90;;;;;;5076878;28;20332;-72
2023/12/22 07:21:30;;;;;;;7.35;1.63;;;7.00;99.90;;;;;;5065314;28;20040;-72
2023/12/22 07:23:58;;;;;;;13.20;2.33;;;7.00;99.90;;;;;;5080618;28;20032;-72
2023/12/22 07:26:29;;;;;;;6.95;1.50;;;7.00;99.90;;;;;;5083893;28;20044;-71
2023/12/22 07:28:55;;;;;;;11.57;2.22;;;7.00;99.90;;;;;;5084046;28;20503;-72
2023/12/22 07:31:21;;;;;;;12.75;2.05;;;7.10;99.90;;;;;;5085765;28;20518;-73
2023/12/22 07:33:47;;;;;;;18.50;1.70;;;7.10;99.90;;;;;;5059474;28;20041;-74
2023/12/22 07:36:13;;;;;;;15.80;3.35;;;7.10;99.90;;;;;;5077853;28;20024;-73
2023/12/22 07:38:41;;;;;;;15.32;4.38;;;7.10;99.90;;;;;;5081827;28;20047;-72
2023/12/22 07:41:10;;;;;;;11.57;2.10;;;7.10;99.90;;;;;;5079014;28;20297;-72
2023/12/22 07:43:36;;;;;;;8.60;2.05;;;7.20;99.90;;;;;;5082182;28;20450;-72
2023/12/22 07:46:02;;;;;;;10.47;2.40;;;7.20;99.90;;;;;;5084115;28;20056;-73
2023/12/22 07:48:28;;;;;;;14.40;2.10;;;7.20;99.90;;;;;;5085753;28;20301;-72
2023/12/22 07:50:53;;;;;;;13.57;2.83;;;7.20;99.90;;;;;;5081213;28;20046;-72
2023/12/22 07:53:19;;;;;;;11.97;2.63;;;7.20;99.90;;;;;;5082022;28;20031;-73
2023/12/22 07:55:46;;;;;;;11.13;1.87;;;7.20;99.90;;;;;;5084339;28;20509;-72
2023/12/22 07:58:12;;;;;;;13.05;2.00;;;7.20;99.90;;;;;;5079168;28;20432;-72
2023/12/22 08:00:38;;;;;;;11.98;2.15;;;7.30;99.90;;;;;;5065047;28;20036;-73
2023/12/22 08:03:04;;;;;;;9.37;1.80;;;7.30;99.90;;;;;;5074945;28;20465;-72
2023/12/22 08:05:30;;;;;;;10.97;1.47;;;7.30;99.90;;;;;;5081527;28;20047;-73
2023/12/22 08:07:55;;;;;;;7.10;2.00;;;7.40;99.90;;;;;;5087099;28;20075;-71
2023/12/22 08:10:21;;;;;;;8.00;1.73;;;7.30;99.90;;;;;;5082964;28;20051;-74
2023/12/22 08:12:47;;;;;;;10.60;1.40;;;7.40;99.90;;;;;;5078580;28;20066;-74
2023/12/22 08:15:13;;;;;;;5.40;1.40;;;7.40;99.90;;;;;;5081753;28;20101;-72
2023/12/22 08:17:51;;;;;;;9.27;1.33;;;7.40;99.90;;;;;;5085847;28;20039;-73
2023/12/22 08:20:20;;;;;;;7.57;0.60;;;7.30;99.90;;;;;;5079171;28;20105;-72
2023/12/22 08:22:50;;;;;;;5.57;0.70;;;7.30;99.90;;;;;;5078971;28;20047;-71
2023/12/22 08:25:25;;;;;;;1.80;0.82;;;7.30;99.90;;;;;;5077308;28;20047;-72
2023/12/22 08:27:51;;;;;;;5.50;1.10;;;7.20;99.90;;;;;;5067834;28;20044;-73
2023/12/22 08:30:17;;;;;;;5.35;0.88;;;7.10;99.90;;;;;;5082367;28;20080;-71
2023/12/22 08:32:43;;;;;;;7.80;1.10;;;7.00;99.90;;;;;;5080809;28;20097;-72
2023/12/22 08:35:09;;;;;;;2.37;0.73;;;7.00;99.90;;;;;;5064478;28;20048;-72
2023/12/22 08:37:34;;;;;;;5.43;1.00;;;6.90;99.90;;;;;;5080249;28;20366;-72
2023/12/22 08:40:00;;;;;;;3.23;0.57;;;6.90;99.90;;;;;;5077853;28;20036;-71
2023/12/22 08:42:26;;;;;;;5.30;1.30;;;6.90;99.90;;;;;;5082757;28;20124;-71
2023/12/22 08:44:52;;;;;;;8.95;2.08;;;6.80;99.90;;;;;;5075985;28;20505;-72
2023/12/22 08:47:17;;;;;;;7.20;1.00;;;6.80;99.90;;;;;;5083145;28;20108;-71
2023/12/22 08:49:43;;;;;;;1.63;0.50;;;6.80;99.90;;;;;;5080256;28;20036;-72
2023/12/22 08:52:09;;;;;;;6.23;0.83;;;6.80;99.90;;;;;;5079881;28;20171;-72
2023/12/22 08:54:35;;;;;;;6.07;1.60;;;6.70;99.90;;;;;;5081307;28;20116;-71
2023/12/22 08:57:02;;;;;;;2.97;0.80;;;6.70;99.90;;;;;;5081448;28;20055;-71
2023/12/22 08:59:27;;;;;;;5.15;1.02;;;6.70;99.90;;;;;;5068718;28;20112;-71
2023/12/22 09:01:53;;;;;;;3.83;1.03;;;6.80;99.90;;;;;;5083414;28;20451;-72
2023/12/22 09:04:20;;;;;;;7.53;0.87;;;6.80;99.90;;;;;;5071019;28;20449;-72
2023/12/22 09:06:46;;;;;;;7.35;0.80;;;6.70;99.90;;;;;;5077192;28;20071;-73
2023/12/22 09:09:12;;;;;;;5.33;1.10;;;6.70;99.90;;;;;;5078152;28;20036;-74
2023/12/22 09:11:38;;;;;;;13.07;1.80;;;6.70;99.90;;;;;;5078748;28;20036;-73
2023/12/22 09:14:09;;;;;;;7.90;1.00;;;6.70;99.90;;;;;;5078812;28;20272;-73
2023/12/22 09:16:35;;;;;;;12.82;1.52;;;6.70;99.90;;;;;;5079451;28;20032;-74
2023/12/22 09:19:01;;;;;;;6.18;1.10;;;6.80;99.90;;;;;;5076503;28;20123;-74
2023/12/22 09:21:26;;;;;;;12.10;1.00;;;6.80;99.90;;;;;;5075798;28;20674;-73
2023/12/22 09:23:52;;;;;;;4.80;1.53;;;6.80;99.90;;;;;;5060215;28;20040;-73
2023/12/22 09:26:18;;;;;;;7.33;1.00;;;6.90;99.90;;;;;;5072402;28;20499;-74
2023/12/22 09:28:45;;;;;;;9.30;1.63;;;6.90;99.90;;;;;;5079577;28;20508;-74
2023/12/22 09:31:12;;;;;;;7.88;1.13;;;6.90;99.90;;;;;;5054431;28;20047;-73
2023/12/22 09:33:39;;;;;;;6.32;1.70;;;6.90;99.90;;;;;;5077805;28;20040;-73
2023/12/22 09:36:05;;;;;;;8.85;1.35;;;7.00;99.90;;;;;;5059466;28;20555;-73
2023/12/22 09:38:31;;;;;;;14.00;1.60;;;7.00;99.90;;;;;;5070033;28;20062;-74
2023/12/22 09:40:58;;;;;;;12.27;1.70;;;7.00;99.90;;;;;;5077074;28;20058;-73
2023/12/22 09:43:24;;;;;;;6.45;1.17;;;7.00;99.90;;;;;;5073842;28;20068;-73
2023/12/22 09:45:49;;;;;;;10.07;1.53;;;7.10;99.90;;;;;;5076115;28;20680;-74
2023/12/22 09:48:17;;;;;;;9.70;1.50;;;7.10;99.90;;;;;;5056767;28;20142;-74
2023/12/22 09:50:44;;;;;;;13.52;2.50;;;7.10;99.90;;;;;;5082304;28;20137;-73
2023/12/22 09:53:12;;;;;;;5.30;1.42;;;7.10;99.90;;;;;;5074063;28;20043;-74
2023/12/22 09:55:41;;;;;;;9.02;1.80;;;7.10;99.90;;;;;;5071367;28;20045;-73
2023/12/22 09:58:09;;;;;;;8.30;1.45;;;7.20;99.90;;;;;;5075333;28;20492;-75
2023/12/22 10:00:36;;;;;;;12.20;1.95;;;7.20;99.90;;;;;;5078168;28;20218;-74
2023/12/22 10:03:06;;;;;;;6.13;1.52;;;7.20;99.90;;;;;;5080609;28;20411;-72
2023/12/22 10:05:33;;;;;;;11.55;1.75;;;7.30;99.90;;;;;;5079847;28;20608;-71
2023/12/22 10:08:01;;;;;;;6.38;1.52;;;7.30;99.90;;;;;;5063668;28;20565;-71
2023/12/22 10:10:29;;;;;;;7.20;1.45;;;7.30;99.90;;;;;;5090822;28;20048;-72
2023/12/22 10:12:56;;;;;;;8.75;1.60;;;7.40;99.90;;;;;;5083978;28;20352;-71
2023/12/22 10:15:24;;;;;;;8.98;1.52;;;7.40;99.90;;;;;;5075725;28;20044;-71
2023/12/22 10:17:54;;;;;;;15.25;1.85;;;7.40;99.90;;;;;;5078766;28;20311;-71
2023/12/22 10:20:20;;;;;;;8.95;1.67;;;7.50;99.90;;;;;;5078134;28;20044;-72
2023/12/22 10:22:46;;;;;;;6.40;1.63;;;7.50;99.90;;;;;;5085244;28;20039;-72
2023/12/22 10:25:18;;;;;;;10.23;1.60;;;7.50;99.90;;;;;;5071338;28;20071;-74
2023/12/22 10:27:43;;;;;;;8.95;1.50;;;7.60;99.90;;;;;;5080063;28;20292;-73
2023/12/22 10:30:10;;;;;;;9.40;1.90;;;7.60;99.90;;;;;;5078159;28;20044;-72
2023/12/22 10:32:41;;;;;;;9.63;2.22;;;7.60;99.90;;;;;;5072874;28;20126;-74
2023/12/22 10:35:08;;;;;;;9.15;1.52;;;7.60;99.90;;;;;;5078998;28;20059;-75
2023/12/22 10:37:34;;;;;;;6.43;2.15;;;7.70;99.90;;;;;;5076696;28;20079;-72
2023/12/22 10:40:00;;;;;;;9.10;1.17;;;7.70;99.90;;;;;;5062775;28;20059;-74
2023/12/22 10:42:26;;;;;;;8.80;2.00;;;7.70;99.90;;;;;;5072610;28;20036;-72
2023/12/22 10:44:53;;;;;;;7.90;1.35;;;7.70;99.90;;;;;;5076517;28;20251;-73
2023/12/22 10:47:21;;;;;;;7.00;1.65;;;7.70;99.90;;;;;;5068057;28;20155;-72
2023/12/22 10:49:46;;;;;;;12.52;2.15;;;7.70;99.90;;;;;;5071896;28;20048;-71
2023/12/22 10:52:17;;;;;;;8.93;2.33;;;7.70;99.90;;;;;;5075024;28;20117;-73
2023/12/22 10:54:43;;;;;;;10.02;2.58;;;7.70;99.90;;;;;;5075646;28;20055;-72
2023/12/22 10:57:11;;;;;;;9.43;1.85;;;7.70;99.90;;;;;;5079033;28;20048;-73
2023/12/22 10:59:45;;;;;;;9.05;2.17;;;7.70;99.90;;;;;;5078511;28;20269;-74
2023/12/22 11:02:18;;;;;;;11.07;1.40;;;7.70;99.90;;;;;;5073431;28;20043;-77
2023/12/22 11:05:08;;;;;;;5.47;1.42;;;7.80;99.90;;;;;;5062712;28;20496;-74
2023/12/22 11:07:38;;;;;;;9.13;1.50;;;7.80;99.90;;;;;;5059372;28;20426;-74
2023/12/22 11:10:10;;;;;;;10.98;1.98;;;7.80;99.90;;;;;;5077686;28;20063;-76
2023/12/22 11:12:37;;;;;;;5.18;1.52;;;7.80;99.90;;;;;;5080108;28;20123;-74
2023/12/22 11:15:06;;;;;;;6.20;2.28;;;7.80;99.90;;;;;;5081728;28;20079;-78
2023/12/22 11:17:33;;;;;;;10.45;1.33;;;7.90;99.90;;;;;;5079162;28;20516;-74
2023/12/22 11:19:59;;;;;;;12.00;1.20;;;7.90;99.90;;;;;;5071585;28;20047;-73
2023/12/22 11:22:25;;;;;;;12.10;1.45;;;7.90;99.90;;;;;;5074359;28;20659;-72
2023/12/22 11:24:52;;;;;;;6.25;1.25;;;7.90;99.90;;;;;;5073108;28;20044;-72
2023/12/22 11:27:21;;;;;;;7.47;1.42;;;7.90;99.90;;;;;;5076847;28;20060;-72
2023/12/22 11:29:50;;;;;;;4.85;1.23;;;7.90;99.90;;;;;;5079799;28;20047;-73
2023/12/22 11:32:17;;;;;;;9.63;2.00;;;7.90;99.90;;;;;;5059689;28;20115;-72
2023/12/22 11:34:44;;;;;;;9.68;1.20;;;7.90;99.90;;;;;;5056892;28;20044;-72
2023/12/22 11:37:13;;;;;;;4.57;1.33;;;8.00;99.90;;;;;;5074281;28;20066;-72
2023/12/22 11:39:40;;;;;;;9.73;1.70;;;8.00;99.90;;;;;;5077996;28;20433;-72
2023/12/22 11:42:07;;;;;;;;;;;8.00;99.90;;;;;;5074505;28;20355;-72
2023/12/22 11:44:33;;;;;;;13.80;1.90;;;8.00;99.90;;;;;;5059294;28;19930;-75
2023/12/22 11:47:09;;;;;;;10.02;1.52;;;8.00;99.90;;;;;;5080213;28;20048;-72
2023/12/22 11:49:36;;;;;;;8.73;2.20;;;8.00;99.90;;;;;;5060415;28;20118;-73
2023/12/22 11:52:13;;;;;;;9.10;2.50;;;8.00;99.90;;;;;;5075921;28;20189;-72
2023/12/22 11:54:52;;;;;;;11.63;2.40;;;8.00;99.90;;;;;;5077554;28;20585;-73
2023/12/22 11:57:39;;;;;;;8.82;1.58;;;8.00;99.90;;;;;;5084120;28;20055;-73
2023/12/22 12:00:21;;;;;;;9.98;1.67;;;8.10;99.90;;;;;;5077116;28;20032;-72
2023/12/22 12:02:55;;;;;;;12.20;1.30;;;8.00;99.90;;;;;;5084246;28;20058;-74
2023/12/22 12:05:20;;;;;;;7.95;2.30;;;8.10;99.90;;;;;;5075155;28;20491;-72
2023/12/22 12:07:48;;;;;;;5.67;1.40;;;8.00;99.90;;;;;;5077053;28;20040;-72
2023/12/22 12:10:35;;;;;;;18.70;1.75;;;8.10;99.90;;;;;;5071664;28;20048;-72
2023/12/22 12:13:05;;;;;;;6.88;2.03;;;8.00;99.90;;;;;;5067817;28;20436;-74
2023/12/22 12:15:33;;;;;;;10.68;1.48;;;8.10;99.90;;;;;;5080658;28;20606;-74
2023/12/22 12:18:00;;;;;;;5.03;1.27;;;8.10;99.90;;;;;;5061261;28;20489;-72
2023/12/22 12:20:27;;;;;;;11.60;1.52;;;8.10;99.90;;;;;;5082428;28;20040;-72
2023/12/22 12:22:53;;;;;;;10.20;1.65;;;8.10;99.90;;;;;;5075844;28;20462;-73
2023/12/22 12:25:23;;;;;;;;;;;8.00;99.90;;;;;;5079774;28;20097;-72
2023/12/22 12:27:48;;;;;;;10.10;1.75;;;8.10;99.90;;;;;;5073335;28;19919;-72
2023/12/22 12:30:14;;;;;;;7.53;1.40;;;8.00;99.90;;;;;;5074739;28;20050;-72
2023/12/22 12:32:44;;;;;;;5.88;1.30;;;8.00;99.90;;;;;;5072568;28;20043;-72
2023/12/22 12:35:10;;;;;;;7.20;2.20;;;8.00;99.90;;;;;;5074877;28;20059;-71
2023/12/22 12:37:37;;;;;;;7.90;1.20;;;8.00;99.90;;;;;;5076724;27;20352;-72
2023/12/22 12:40:05;;;;;;;5.78;1.45;;;8.00;99.90;;;;;;5075751;28;20454;-73
2023/12/22 12:42:31;;;;;;;4.15;1.35;;;8.00;99.90;;;;;;5074901;28;20097;-73
2023/12/22 12:44:57;;;;;;;9.73;1.20;;;7.90;99.90;;;;;;5076053;28;20499;-71
2023/12/22 12:47:23;;;;;;;16.77;1.97;;;7.90;99.90;;;;;;5074782;28;20109;-74
2023/12/22 12:50:00;;;;;;;4.50;1.40;;;7.90;99.90;;;;;;5082597;28;20459;-72
2023/12/22 12:52:26;;;;;;;5.15;0.82;;;7.90;99.90;;;;;;5081953;28;20047;-72